This is the latest recevied weather packets stored in our database for station/object IZ1BLA-10. If no packets are shown the sender has not sent any weather packets the latest 10 day(s).
| Time | Temp. | Humidity | Pressure | Rain* | Wind** | Luminosity | Snow |
|---|---|---|---|---|---|---|---|
| 1778026156 | 13.33° C | 79% | 1010.5 hPa | - | - | - | - |
| 1778025556 | 13.89° C | 78% | 1010.8 hPa | - | - | - | - |
| 1778024957 | 13.33° C | 80% | 1011.3 hPa | - | - | - | - |
| 1778024358 | 14.44° C | 75% | 1011.1 hPa | - | - | - | - |
| 1778023756 | 13.89° C | 76% | 1011.5 hPa | - | - | - | - |
| 1778023157 | 13.89° C | 80% | 1011.6 hPa | - | - | - | - |
| 1778022556 | 14.44° C | 77% | 1011.3 hPa | - | - | - | - |
| 1778021956 | 13.89° C | 78% | 1011.6 hPa | - | - | - | - |
| 1778021356 | 14.44° C | 77% | 1011.5 hPa | - | - | - | - |
| 1778020757 | 14.44° C | 77% | 1011.3 hPa | - | - | - | - |
| 1778020157 | 14.44° C | 75% | 1011.3 hPa | - | - | - | - |
| 1778019556 | 13.89° C | 79% | 1011.5 hPa | - | - | - | - |
| 1778018956 | 14.44° C | 76% | 1011.6 hPa | - | - | - | - |
| 1778018357 | 15.56° C | 72% | 1011.4 hPa | - | - | - | - |
| 1778017756 | 14.44° C | 77% | 1011.8 hPa | - | - | - | - |
| 1778017156 | 14.44° C | 76% | 1011.7 hPa | - | - | - | - |
| 1778016556 | 14.44° C | 79% | 1011.5 hPa | - | - | - | - |
| 1778015956 | 14.44° C | 78% | 1011.9 hPa | - | - | - | - |
| 1778015356 | 14.44° C | 75% | 1011.9 hPa | - | - | - | - |
| 1778014756 | 14.44° C | 77% | 1012.1 hPa | - | - | - | - |
| 1778014157 | 13.89° C | 80% | 1011.9 hPa | - | - | - | - |
| 1778013556 | 15° C | 75% | 1012 hPa | - | - | - | - |
| 1778012956 | 15° C | 73% | 1011.9 hPa | - | - | - | - |
| 1778012356 | 15.56° C | 71% | 1011.7 hPa | - | - | - | - |
| 1778011756 | 14.44° C | 75% | 1012.1 hPa | - | - | - | - |
* Rain since midnight (hover to see other rain measurements)
** Current wind speed in m/s (hover to see current wind gust speed)